Time;durP1;ratioP1;P1;durP2;ratioP2;P2;SDS_P1;SDS_P2;PMS_P1;PMS_P2;Temp;Humidity;BMP_temperature;BMP_pressure;BME280_temperature;BME280_humidity;BME280_pressure;Samples;Min_cycle;Max_cycle;Signal;HPM_P1;HPM_P2
2023/05/31 00:01:37;;;;;;;18.73;11.40;;;;;;;;;;5026939;28;20491;-63
2023/05/31 00:04:04;;;;;;;17.25;12.02;;;;;;;;;;5023877;28;20445;-63
2023/05/31 00:06:32;;;;;;;17.85;12.75;;;;;;;;;;5027103;28;20415;-63
2023/05/31 00:08:59;;;;;;;16.83;12.77;;;;;;;;;;5024555;28;20419;-63
2023/05/31 00:11:26;;;;;;;18.98;12.80;;;;;;;;;;5022465;28;20458;-62
2023/05/31 00:13:53;;;;;;;18.00;12.88;;;;;;;;;;5028533;28;20448;-63
2023/05/31 00:16:20;;;;;;;20.20;13.80;;;;;;;;;;5028747;28;20431;-63
2023/05/31 00:18:47;;;;;;;18.90;13.30;;;;;;;;;;5022480;28;20420;-63
2023/05/31 00:21:14;;;;;;;15.93;13.27;;;;;;;;;;5022897;28;20523;-64
2023/05/31 00:23:43;;;;;;;19.08;13.70;;;;;;;;;;5025567;28;20490;-63
2023/05/31 00:26:10;;;;;;;17.75;14.10;;;;;;;;;;5023533;28;20418;-63
2023/05/31 00:28:37;;;;;;;18.63;14.45;;;;;;;;;;5022109;28;20483;-63
2023/05/31 00:31:04;;;;;;;18.77;14.10;;;;;;;;;;5027018;28;20415;-63
2023/05/31 00:33:31;;;;;;;20.03;14.43;;;;;;;;;;5024168;28;20425;-63
2023/05/31 00:35:58;;;;;;;20.35;14.60;;;;;;;;;;5022056;28;20416;-63
2023/05/31 00:38:27;;;;;;;20.23;14.90;;;;;;;;;;5029055;28;20423;-63
2023/05/31 00:40:55;;;;;;;19.08;15.23;;;;;;;;;;5021444;28;21011;-64
2023/05/31 00:43:22;;;;;;;19.13;14.52;;;;;;;;;;5026867;28;20418;-64
2023/05/31 00:45:49;;;;;;;20.65;15.38;;;;;;;;;;5028538;28;20424;-63
2023/05/31 00:48:17;;;;;;;19.85;15.50;;;;;;;;;;5026241;28;20477;-63
2023/05/31 00:50:44;;;;;;;20.30;15.30;;;;;;;;;;5024240;28;20435;-64
2023/05/31 00:53:11;;;;;;;20.80;15.38;;;;;;;;;;5013216;28;20409;-62
2023/05/31 00:55:38;;;;;;;20.20;15.82;;;;;;;;;;5012684;28;20409;-63
2023/05/31 00:58:07;;;;;;;21.08;16.10;;;;;;;;;;5022176;28;20961;-63
2023/05/31 01:00:33;;;;;;;22.80;16.60;;;;;;;;;;5022434;28;20496;-63
2023/05/31 01:03:02;;;;;;;22.27;16.25;;;;;;;;;;5021507;28;20478;-63
2023/05/31 01:05:29;;;;;;;20.63;16.50;;;;;;;;;;5023286;28;20415;-62
2023/05/31 01:07:56;;;;;;;22.55;17.27;;;;;;;;;;5024813;28;20415;-63
2023/05/31 01:10:23;;;;;;;23.15;17.67;;;;;;;;;;5021151;28;20467;-63
2023/05/31 01:12:54;;;;;;;23.15;16.75;;;;;;;;;;5025189;28;20422;-63
2023/05/31 01:15:24;;;;;;;21.52;17.65;;;;;;;;;;5028772;28;20415;-63
2023/05/31 01:17:59;;;;;;;22.67;17.77;;;;;;;;;;5025283;28;20453;-63
2023/05/31 01:20:27;;;;;;;25.50;17.88;;;;;;;;;;5012737;28;20429;-63
2023/05/31 01:23:01;;;;;;;23.38;18.13;;;;;;;;;;5012602;28;20483;-64
2023/05/31 01:25:32;;;;;;;22.63;17.50;;;;;;;;;;5027289;28;20415;-64
2023/05/31 01:28:01;;;;;;;23.80;18.08;;;;;;;;;;5026702;28;20419;-63
2023/05/31 01:30:29;;;;;;;24.65;18.75;;;;;;;;;;5025955;28;20421;-63
2023/05/31 01:32:57;;;;;;;24.88;18.73;;;;;;;;;;5027879;28;20507;-63
2023/05/31 01:35:24;;;;;;;25.45;19.63;;;;;;;;;;5024107;28;20419;-64
2023/05/31 01:37:51;;;;;;;24.40;18.85;;;;;;;;;;5020149;28;20423;-64
2023/05/31 01:40:19;;;;;;;27.63;19.83;;;;;;;;;;5018451;28;20483;-63
2023/05/31 01:42:46;;;;;;;24.02;19.23;;;;;;;;;;5025770;28;20423;-64
2023/05/31 01:45:15;;;;;;;26.50;19.80;;;;;;;;;;5027310;28;20426;-63
2023/05/31 01:47:44;;;;;;;27.33;20.10;;;;;;;;;;5026877;28;20426;-63
2023/05/31 01:50:11;;;;;;;27.70;21.10;;;;;;;;;;5025786;28;20514;-64
2023/05/31 01:52:39;;;;;;;27.52;20.77;;;;;;;;;;5027028;28;20488;-63
2023/05/31 01:55:06;;;;;;;28.08;20.35;;;;;;;;;;5024904;28;20419;-63
2023/05/31 01:57:35;;;;;;;26.00;20.08;;;;;;;;;;5025057;28;20426;-63
2023/05/31 02:00:06;;;;;;;27.77;20.13;;;;;;;;;;5022433;28;20761;-63
2023/05/31 02:02:35;;;;;;;26.05;20.50;;;;;;;;;;5011495;28;20448;-63
2023/05/31 02:05:08;;;;;;;27.17;21.23;;;;;;;;;;5023167;28;20432;-64
2023/05/31 02:07:36;;;;;;;26.50;21.33;;;;;;;;;;5024614;28;20883;-63
2023/05/31 02:10:03;;;;;;;26.65;21.08;;;;;;;;;;5023881;28;20453;-63
2023/05/31 02:12:30;;;;;;;28.00;21.70;;;;;;;;;;5020419;28;20409;-64
2023/05/31 02:14:57;;;;;;;29.52;21.38;;;;;;;;;;5024134;28;20423;-63
2023/05/31 02:17:25;;;;;;;26.58;20.98;;;;;;;;;;5027871;28;21190;-64
2023/05/31 02:19:53;;;;;;;28.05;21.10;;;;;;;;;;5022806;28;20419;-62
2023/05/31 02:22:20;;;;;;;28.55;21.73;;;;;;;;;;5023405;28;20423;-63
2023/05/31 02:24:48;;;;;;;28.57;21.00;;;;;;;;;;5021453;28;20762;-63
2023/05/31 02:27:15;;;;;;;28.73;21.27;;;;;;;;;;5023326;28;20415;-62
2023/05/31 02:29:42;;;;;;;28.88;21.50;;;;;;;;;;5011196;28;20412;-63
2023/05/31 02:32:09;;;;;;;27.70;21.15;;;;;;;;;;5010950;28;20452;-63
2023/05/31 02:34:36;;;;;;;28.70;20.92;;;;;;;;;;5011189;28;20473;-63
2023/05/31 02:37:05;;;;;;;27.30;20.92;;;;;;;;;;5022385;28;20479;-63
2023/05/31 02:39:32;;;;;;;27.48;21.48;;;;;;;;;;5019392;28;20425;-63
2023/05/31 02:41:59;;;;;;;28.02;21.13;;;;;;;;;;5019703;28;20432;-63
2023/05/31 02:44:27;;;;;;;26.88;20.65;;;;;;;;;;5023680;28;20428;-63
2023/05/31 02:46:54;;;;;;;28.98;22.27;;;;;;;;;;5027173;28;20486;-64
2023/05/31 02:49:21;;;;;;;27.60;21.92;;;;;;;;;;5026583;28;20427;-64
2023/05/31 02:51:48;;;;;;;29.67;21.97;;;;;;;;;;5025763;28;20780;-63
2023/05/31 02:54:16;;;;;;;30.38;22.00;;;;;;;;;;5021299;28;20458;-63
2023/05/31 02:56:43;;;;;;;31.05;22.00;;;;;;;;;;5019548;28;20416;-64
2023/05/31 02:59:10;;;;;;;30.13;21.52;;;;;;;;;;5020761;28;20812;-63
2023/05/31 03:01:37;;;;;;;26.45;20.85;;;;;;;;;;5020106;28;20498;-63
2023/05/31 03:04:04;;;;;;;27.40;21.27;;;;;;;;;;5022055;28;20444;-63
2023/05/31 03:06:31;;;;;;;27.17;21.77;;;;;;;;;;5023410;28;20416;-63
2023/05/31 03:08:58;;;;;;;28.52;21.63;;;;;;;;;;5026234;28;20496;-64
2023/05/31 03:11:26;;;;;;;27.95;22.27;;;;;;;;;;5023728;28;20405;-63
2023/05/31 03:13:53;;;;;;;26.95;21.13;;;;;;;;;;5029412;28;20427;-64
2023/05/31 03:16:21;;;;;;;29.58;21.38;;;;;;;;;;5027848;28;20424;-62
2023/05/31 03:18:48;;;;;;;27.90;20.93;;;;;;;;;;5025627;28;20425;-64
2023/05/31 03:21:15;;;;;;;27.80;20.08;;;;;;;;;;5025526;28;20426;-64
2023/05/31 03:23:42;;;;;;;27.13;20.80;;;;;;;;;;5024003;28;20773;-63
2023/05/31 03:26:09;;;;;;;27.70;21.27;;;;;;;;;;5025703;28;20411;-63
2023/05/31 03:28:38;;;;;;;28.40;21.70;;;;;;;;;;5026258;28;20422;-63
2023/05/31 03:31:05;;;;;;;31.48;22.13;;;;;;;;;;5024614;28;20886;-63
2023/05/31 03:33:32;;;;;;;28.20;22.48;;;;;;;;;;5023336;28;20479;-63
2023/05/31 03:35:59;;;;;;;29.52;22.20;;;;;;;;;;5024726;28;20421;-63
2023/05/31 03:38:26;;;;;;;28.17;21.00;;;;;;;;;;5024683;28;20932;-64
2023/05/31 03:40:53;;;;;;;28.35;21.67;;;;;;;;;;5029150;28;20912;-63
2023/05/31 03:43:20;;;;;;;29.57;22.10;;;;;;;;;;5030338;28;20904;-64
2023/05/31 03:45:49;;;;;;;30.20;21.83;;;;;;;;;;5028315;28;20427;-64
2023/05/31 03:48:16;;;;;;;30.55;22.20;;;;;;;;;;5026475;28;20422;-63
2023/05/31 03:50:45;;;;;;;30.90;22.35;;;;;;;;;;5022530;28;20470;-63
2023/05/31 03:53:12;;;;;;;32.13;20.92;;;;;;;;;;5027998;28;20419;-64
2023/05/31 03:55:39;;;;;;;28.33;22.07;;;;;;;;;;5024479;28;20506;-63
2023/05/31 03:58:06;;;;;;;28.42;21.75;;;;;;;;;;5028074;28;20430;-64
2023/05/31 04:00:34;;;;;;;26.85;20.70;;;;;;;;;;5024156;28;20418;-64
2023/05/31 04:03:02;;;;;;;30.15;21.23;;;;;;;;;;5022230;28;20755;-64
2023/05/31 04:05:29;;;;;;;26.58;20.90;;;;;;;;;;5023410;28;20502;-65
2023/05/31 04:07:56;;;;;;;26.92;21.10;;;;;;;;;;5027182;28;20493;-65
2023/05/31 04:10:23;;;;;;;27.48;20.75;;;;;;;;;;5022835;28;20425;-65
2023/05/31 04:12:50;;;;;;;26.50;19.02;;;;;;;;;;5026598;28;20407;-64
2023/05/31 04:15:17;;;;;;;24.98;19.30;;;;;;;;;;5022806;28;20465;-65
2023/05/31 04:17:45;;;;;;;26.40;19.70;;;;;;;;;;5025804;28;20431;-64
2023/05/31 04:20:14;;;;;;;27.10;20.55;;;;;;;;;;5029969;28;20423;-65
2023/05/31 04:22:40;;;;;;;25.85;20.35;;;;;;;;;;5023260;28;20420;-65
2023/05/31 04:25:08;;;;;;;25.50;19.13;;;;;;;;;;5022023;28;20999;-65
2023/05/31 04:27:38;;;;;;;25.43;19.17;;;;;;;;;;5027141;28;20431;-65
2023/05/31 04:30:05;;;;;;;23.98;18.73;;;;;;;;;;5025570;28;20455;-65
2023/05/31 04:32:34;;;;;;;29.58;18.88;;;;;;;;;;5024273;28;20411;-65
2023/05/31 04:35:03;;;;;;;25.97;19.70;;;;;;;;;;5023724;28;20590;-65
2023/05/31 04:37:32;;;;;;;28.38;20.27;;;;;;;;;;5024138;28;21182;-65
2023/05/31 04:39:59;;;;;;;28.02;21.08;;;;;;;;;;5023877;28;20506;-65
2023/05/31 04:42:27;;;;;;;29.08;20.60;;;;;;;;;;5025452;28;20419;-65
2023/05/31 04:44:57;;;;;;;29.45;21.08;;;;;;;;;;5025817;28;20463;-65
2023/05/31 04:47:27;;;;;;;28.17;19.37;;;;;;;;;;5027998;28;20962;-64
2023/05/31 04:49:56;;;;;;;25.83;18.37;;;;;;;;;;5023654;28;20459;-65
2023/05/31 04:52:24;;;;;;;27.00;18.88;;;;;;;;;;5024151;28;20421;-65
2023/05/31 04:54:52;;;;;;;25.67;17.63;;;;;;;;;;5020340;28;20436;-65
2023/05/31 04:57:19;;;;;;;22.87;17.90;;;;;;;;;;5024013;28;20471;-65
2023/05/31 04:59:46;;;;;;;23.77;17.35;;;;;;;;;;5023466;28;20486;-66
2023/05/31 05:02:13;;;;;;;22.67;17.70;;;;;;;;;;5026845;28;20426;-65
2023/05/31 05:04:40;;;;;;;24.05;17.50;;;;;;;;;;5032189;28;20410;-65
2023/05/31 05:07:07;;;;;;;23.73;17.80;;;;;;;;;;5024021;28;20427;-65
2023/05/31 05:09:34;;;;;;;23.77;17.80;;;;;;;;;;5020771;28;20421;-66
2023/05/31 05:12:02;;;;;;;23.30;17.42;;;;;;;;;;5022193;28;20417;-65
2023/05/31 05:14:30;;;;;;;25.00;17.70;;;;;;;;;;5027288;28;20431;-66
2023/05/31 05:16:57;;;;;;;22.27;16.85;;;;;;;;;;5027334;28;20929;-66
2023/05/31 05:19:24;;;;;;;22.35;16.73;;;;;;;;;;5021664;28;20417;-66
2023/05/31 05:21:51;;;;;;;19.25;15.48;;;;;;;;;;5024322;28;20420;-66
2023/05/31 05:24:18;;;;;;;23.23;17.25;;;;;;;;;;5022315;28;20415;-65
2023/05/31 05:26:45;;;;;;;20.60;16.20;;;;;;;;;;5024106;28;20427;-65
2023/05/31 05:29:13;;;;;;;21.65;16.17;;;;;;;;;;5022551;28;20937;-66
2023/05/31 05:31:40;;;;;;;21.73;15.30;;;;;;;;;;5022970;28;20419;-66
2023/05/31 05:34:07;;;;;;;21.27;14.93;;;;;;;;;;5019618;28;20415;-63
2023/05/31 05:36:35;;;;;;;25.55;16.27;;;;;;;;;;5021829;28;20451;-66
2023/05/31 05:39:05;;;;;;;20.05;14.80;;;;;;;;;;5023563;28;20897;-65
2023/05/31 05:41:32;;;;;;;22.85;16.23;;;;;;;;;;5022345;28;20834;-66
2023/05/31 05:43:59;;;;;;;20.80;15.05;;;;;;;;;;5027841;28;20834;-65
2023/05/31 05:46:28;;;;;;;22.27;14.65;;;;;;;;;;5024720;28;20435;-65
2023/05/31 05:48:55;;;;;;;21.38;14.52;;;;;;;;;;5026383;28;20421;-65
2023/05/31 05:51:22;;;;;;;20.50;14.48;;;;;;;;;;5020073;28;20449;-65
2023/05/31 05:53:49;;;;;;;24.15;14.63;;;;;;;;;;5024368;28;20417;-65
2023/05/31 05:56:18;;;;;;;21.17;14.65;;;;;;;;;;5024528;28;20453;-65
2023/05/31 05:58:46;;;;;;;18.33;14.40;;;;;;;;;;5022987;28;20512;-65
2023/05/31 06:01:18;;;;;;;21.05;14.70;;;;;;;;;;5020360;28;20427;-65
2023/05/31 06:03:46;;;;;;;19.42;14.15;;;;;;;;;;5017591;28;20479;-65
2023/05/31 06:06:13;;;;;;;20.75;13.50;;;;;;;;;;5019832;28;20420;-64
2023/05/31 06:08:40;;;;;;;19.08;13.32;;;;;;;;;;5023433;28;20467;-65
2023/05/31 06:11:07;;;;;;;19.83;13.70;;;;;;;;;;5020694;28;20466;-65
2023/05/31 06:13:34;;;;;;;18.95;13.85;;;;;;;;;;5020632;28;20768;-65
2023/05/31 06:16:01;;;;;;;19.25;13.82;;;;;;;;;;5023374;28;20423;-65
2023/05/31 06:18:28;;;;;;;27.95;13.77;;;;;;;;;;5027311;28;20427;-66
2023/05/31 06:20:56;;;;;;;20.02;13.70;;;;;;;;;;5023182;28;20483;-65
2023/05/31 06:23:23;;;;;;;20.85;13.60;;;;;;;;;;5024086;28;20493;-65
2023/05/31 06:25:51;;;;;;;18.92;13.77;;;;;;;;;;5020226;28;20487;-62
2023/05/31 06:28:18;;;;;;;18.55;13.00;;;;;;;;;;5020604;28;20420;-65
2023/05/31 06:30:45;;;;;;;20.75;13.68;;;;;;;;;;5022459;28;20429;-64
2023/05/31 06:33:12;;;;;;;20.33;13.82;;;;;;;;;;5021713;28;20426;-63
2023/05/31 06:35:40;;;;;;;20.35;14.70;;;;;;;;;;5025629;28;20422;-62
2023/05/31 06:38:14;;;;;;;19.70;13.70;;;;;;;;;;5020520;28;20418;-63
2023/05/31 06:40:41;;;;;;;18.38;13.32;;;;;;;;;;5018852;28;20427;-63
2023/05/31 06:43:08;;;;;;;21.15;13.15;;;;;;;;;;5023370;28;20434;-64
2023/05/31 06:45:35;;;;;;;18.63;12.50;;;;;;;;;;5023253;28;20772;-63
2023/05/31 06:48:02;;;;;;;18.05;12.35;;;;;;;;;;5026829;28;20464;-63
2023/05/31 06:50:29;;;;;;;18.03;12.20;;;;;;;;;;5024815;28;20422;-63
2023/05/31 06:52:56;;;;;;;33.63;22.13;;;;;;;;;;5019619;28;20422;-63
2023/05/31 06:55:25;;;;;;;20.48;13.65;;;;;;;;;;5020148;28;20416;-64
2023/05/31 06:57:52;;;;;;;19.30;11.88;;;;;;;;;;5019664;28;20458;-64
2023/05/31 07:00:19;;;;;;;18.70;12.20;;;;;;;;;;5023421;28;20913;-64
2023/05/31 07:02:46;;;;;;;19.20;11.68;;;;;;;;;;5019547;28;20424;-65
2023/05/31 07:05:13;;;;;;;17.98;11.05;;;;;;;;;;5021949;28;20422;-64
2023/05/31 07:07:40;;;;;;;16.70;10.73;;;;;;;;;;5022336;28;20486;-64
2023/05/31 07:10:08;;;;;;;14.55;10.32;;;;;;;;;;5022129;28;20410;-65
2023/05/31 07:12:36;;;;;;;15.80;10.48;;;;;;;;;;5023043;28;20493;-65
2023/05/31 07:15:03;;;;;;;16.67;10.30;;;;;;;;;;5021755;28;20424;-65
2023/05/31 07:17:30;;;;;;;18.45;10.23;;;;;;;;;;5020512;28;20421;-65
2023/05/31 07:19:57;;;;;;;15.88;9.93;;;;;;;;;;5022551;28;20426;-65
2023/05/31 07:22:24;;;;;;;14.20;9.85;;;;;;;;;;5022058;28;20434;-64
2023/05/31 07:24:51;;;;;;;13.00;9.27;;;;;;;;;;5021536;28;20422;-65
2023/05/31 07:27:18;;;;;;;15.90;9.70;;;;;;;;;;5022354;28;20419;-66
2023/05/31 07:29:46;;;;;;;16.07;9.60;;;;;;;;;;5020120;28;20482;-65
2023/05/31 07:32:13;;;;;;;16.65;9.43;;;;;;;;;;5019544;28;20462;-64
2023/05/31 07:34:41;;;;;;;13.50;8.67;;;;;;;;;;5026426;28;20419;-64
2023/05/31 07:37:08;;;;;;;14.30;9.43;;;;;;;;;;5020815;28;20421;-65
2023/05/31 07:39:35;;;;;;;17.10;9.20;;;;;;;;;;5019159;28;20451;-65
2023/05/31 07:42:02;;;;;;;13.10;9.27;;;;;;;;;;5020710;28;20475;-65
2023/05/31 07:44:29;;;;;;;19.17;9.80;;;;;;;;;;5021874;28;20455;-64
2023/05/31 07:46:57;;;;;;;15.02;8.52;;;;;;;;;;5023990;28;20424;-63
2023/05/31 07:49:24;;;;;;;17.67;8.40;;;;;;;;;;5026416;28;20469;-63
2023/05/31 07:51:53;;;;;;;17.60;8.82;;;;;;;;;;5020697;28;20424;-67
2023/05/31 07:54:20;;;;;;;17.10;8.70;;;;;;;;;;5028013;28;20422;-66
2023/05/31 07:56:47;;;;;;;17.25;8.65;;;;;;;;;;5032812;28;20414;-66
2023/05/31 07:59:14;;;;;;;11.77;7.90;;;;;;;;;;5030203;28;20419;-67
2023/05/31 08:01:41;;;;;;;17.98;8.02;;;;;;;;;;5028268;28;20427;-65
2023/05/31 08:04:11;;;;;;;13.50;7.57;;;;;;;;;;5024547;28;20427;-66
2023/05/31 08:06:38;;;;;;;12.85;7.20;;;;;;;;;;5025484;28;20419;-65
2023/05/31 08:09:06;;;;;;;12.40;7.40;;;;;;;;;;5023127;28;20412;-65
2023/05/31 08:11:35;;;;;;;13.30;7.65;;;;;;;;;;5024008;28;20429;-66
2023/05/31 08:14:02;;;;;;;13.38;7.68;;;;;;;;;;5031104;28;20410;-66
2023/05/31 08:16:29;;;;;;;17.17;7.90;;;;;;;;;;5028763;28;20415;-67
2023/05/31 08:18:56;;;;;;;13.80;7.20;;;;;;;;;;5031058;28;20424;-68
2023/05/31 08:21:25;;;;;;;14.85;7.43;;;;;;;;;;5025627;28;20448;-66
2023/05/31 08:23:52;;;;;;;12.20;6.85;;;;;;;;;;5023595;28;21101;-66
2023/05/31 08:26:19;;;;;;;14.70;6.82;;;;;;;;;;5021477;28;20429;-64
2023/05/31 08:28:46;;;;;;;13.40;6.22;;;;;;;;;;5022844;28;20909;-66
2023/05/31 08:31:13;;;;;;;16.20;7.47;;;;;;;;;;5025222;28;20429;-66
2023/05/31 08:33:53;;;;;;;14.52;7.50;;;;;;;;;;5022987;28;20411;-64
2023/05/31 08:36:20;;;;;;;13.20;6.13;;;;;;;;;;5021904;28;20919;-65
2023/05/31 08:38:48;;;;;;;11.40;5.70;;;;;;;;;;5022130;28;20504;-65
2023/05/31 08:41:16;;;;;;;14.73;6.57;;;;;;;;;;5023737;28;20422;-65
2023/05/31 08:43:43;;;;;;;11.07;6.15;;;;;;;;;;5023311;28;20427;-66
2023/05/31 08:46:12;;;;;;;12.80;5.88;;;;;;;;;;5023966;28;20473;-67
2023/05/31 08:48:42;;;;;;;9.48;5.80;;;;;;;;;;5025610;28;20419;-67
2023/05/31 08:51:09;;;;;;;12.55;6.53;;;;;;;;;;5024248;28;20415;-65
2023/05/31 08:53:36;;;;;;;10.75;5.88;;;;;;;;;;5024247;28;20411;-66
2023/05/31 08:56:05;;;;;;;15.65;6.78;;;;;;;;;;5024826;28;20420;-67
2023/05/31 08:58:32;;;;;;;13.40;6.40;;;;;;;;;;5021564;28;20507;-67
2023/05/31 09:00:59;;;;;;;12.43;6.55;;;;;;;;;;5021830;28;20864;-68
2023/05/31 09:03:26;;;;;;;9.98;5.18;;;;;;;;;;5023216;28;20427;-68
2023/05/31 09:05:55;;;;;;;11.48;5.05;;;;;;;;;;5024708;28;20436;-67
2023/05/31 09:08:22;;;;;;;12.40;5.40;;;;;;;;;;5020672;28;20479;-69
2023/05/31 09:10:55;;;;;;;10.45;5.30;;;;;;;;;;5038017;28;20453;-66
2023/05/31 09:13:24;;;;;;;11.95;5.45;;;;;;;;;;5035219;28;20430;-69
2023/05/31 09:15:53;;;;;;;11.90;4.78;;;;;;;;;;5029246;28;20442;-69
2023/05/31 09:18:21;;;;;;;11.55;4.28;;;;;;;;;;5023803;28;20411;-66
2023/05/31 09:20:48;;;;;;;9.98;4.47;;;;;;;;;;5022180;28;20467;-66
2023/05/31 09:23:15;;;;;;;8.15;4.22;;;;;;;;;;5020233;28;20483;-67
2023/05/31 09:25:45;;;;;;;12.52;4.45;;;;;;;;;;5014348;28;20470;-66
2023/05/31 09:28:13;;;;;;;8.95;4.53;;;;;;;;;;5022839;28;20416;-65
2023/05/31 09:30:41;;;;;;;7.15;4.20;;;;;;;;;;5026955;28;20419;-63
2023/05/31 09:33:08;;;;;;;7.05;4.07;;;;;;;;;;5024363;28;20799;-63
2023/05/31 09:35:35;;;;;;;11.15;4.18;;;;;;;;;;5023508;28;20419;-63
2023/05/31 09:38:05;;;;;;;12.37;3.90;;;;;;;;;;5021709;28;20773;-63
2023/05/31 09:40:32;;;;;;;8.25;4.50;;;;;;;;;;5020385;28;20424;-61
2023/05/31 09:42:59;;;;;;;9.65;3.80;;;;;;;;;;5022551;28;20422;-62
2023/05/31 09:45:28;;;;;;;12.57;4.03;;;;;;;;;;5022754;28;20545;-63
2023/05/31 09:47:56;;;;;;;5.53;3.30;;;;;;;;;;5020744;28;20471;-63
2023/05/31 09:50:24;;;;;;;5.90;3.10;;;;;;;;;;5023256;28;20474;-63
2023/05/31 09:52:52;;;;;;;7.47;3.63;;;;;;;;;;5023111;28;20415;-63
2023/05/31 09:55:19;;;;;;;9.73;3.55;;;;;;;;;;5021941;28;20780;-63
2023/05/31 09:57:46;;;;;;;9.60;4.00;;;;;;;;;;5020251;28;20495;-63
2023/05/31 10:00:16;;;;;;;9.10;3.05;;;;;;;;;;5023835;28;20536;-63
2023/05/31 10:02:44;;;;;;;5.80;2.90;;;;;;;;;;5026665;28;20469;-63
2023/05/31 10:05:12;;;;;;;7.95;3.33;;;;;;;;;;5022627;28;20423;-63
2023/05/31 10:07:40;;;;;;;10.57;4.20;;;;;;;;;;5022018;28;20424;-63
2023/05/31 10:10:08;;;;;;;7.70;3.90;;;;;;;;;;5020072;28;20415;-63
2023/05/31 10:12:36;;;;;;;9.75;4.28;;;;;;;;;;5020197;28;20897;-63
2023/05/31 10:15:05;;;;;;;9.40;3.10;;;;;;;;;;5025571;28;21035;-64
2023/05/31 10:17:35;;;;;;;6.72;2.90;;;;;;;;;;5021272;28;20414;-63
2023/05/31 10:20:06;;;;;;;9.73;3.22;;;;;;;;;;5023260;28;20773;-64
2023/05/31 10:22:36;;;;;;;6.65;3.10;;;;;;;;;;5021035;28;20423;-64
2023/05/31 10:25:05;;;;;;;9.48;2.90;;;;;;;;;;5011166;28;20408;-63
2023/05/31 10:27:37;;;;;;;8.13;3.05;;;;;;;;;;5024241;28;20428;-64
2023/05/31 10:30:05;;;;;;;6.88;3.20;;;;;;;;;;5021713;28;20826;-63
2023/05/31 10:32:34;;;;;;;7.63;2.97;;;;;;;;;;5021761;28;20429;-63
2023/05/31 10:35:02;;;;;;;10.13;3.00;;;;;;;;;;5022329;28;20418;-65
2023/05/31 10:37:29;;;;;;;5.15;2.38;;;;;;;;;;5021523;28;20476;-63
2023/05/31 10:40:05;;;;;;;8.18;3.13;;;;;;;;;;5022038;28;20437;-64
2023/05/31 10:42:37;;;;;;;4.25;2.47;;;;;;;;;;5022016;28;20782;-65
2023/05/31 10:45:07;;;;;;;8.10;2.83;;;;;;;;;;5020358;28;20844;-65
2023/05/31 10:47:37;;;;;;;6.93;2.72;;;;;;;;;;5019540;28;20416;-64
2023/05/31 10:50:04;;;;;;;6.43;2.78;;;;;;;;;;5026884;28;20489;-63
2023/05/31 10:52:31;;;;;;;11.23;5.00;;;;;;;;;;5030163;28;20419;-64
2023/05/31 10:55:13;;;;;;;7.78;2.75;;;;;;;;;;5019667;28;20818;-64
2023/05/31 10:57:42;;;;;;;8.00;2.55;;;;;;;;;;5019806;28;20817;-64
2023/05/31 11:00:11;;;;;;;6.65;2.67;;;;;;;;;;5027593;28;20526;-64
2023/05/31 11:02:39;;;;;;;6.30;2.47;;;;;;;;;;5019768;28;20424;-63
2023/05/31 11:05:19;;;;;;;7.13;2.80;;;;;;;;;;5022878;28;20432;-64
2023/05/31 11:07:46;;;;;;;6.35;2.38;;;;;;;;;;5016722;28;20478;-64
2023/05/31 11:10:25;;;;;;;5.15;2.60;;;;;;;;;;5022472;28;20419;-64
2023/05/31 11:12:53;;;;;;;8.13;2.50;;;;;;;;;;5021192;28;20953;-63
2023/05/31 11:15:20;;;;;;;5.25;2.35;;;;;;;;;;5019538;28;20424;-63
2023/05/31 11:17:52;;;;;;;5.07;2.33;;;;;;;;;;5022982;28;20456;-62
2023/05/31 11:20:20;;;;;;;7.45;2.53;;;;;;;;;;5019232;28;20430;-63
2023/05/31 11:22:47;;;;;;;8.32;2.42;;;;;;;;;;5020734;28;20865;-63
2023/05/31 11:25:20;;;;;;;6.25;2.38;;;;;;;;;;5018921;28;20424;-62
2023/05/31 11:27:49;;;;;;;4.47;1.83;;;;;;;;;;5023618;28;20519;-62
2023/05/31 11:30:17;;;;;;;6.73;2.53;;;;;;;;;;5026093;28;20984;-62
2023/05/31 11:32:58;;;;;;;5.68;2.35;;;;;;;;;;5024196;28;20415;-62
2023/05/31 11:35:26;;;;;;;5.75;2.30;;;;;;;;;;5024559;28;20495;-63
2023/05/31 11:38:00;;;;;;;5.60;2.10;;;;;;;;;;5030272;28;20541;-63
2023/05/31 11:40:27;;;;;;;6.50;2.47;;;;;;;;;;5026467;28;20427;-63
2023/05/31 11:42:57;;;;;;;6.97;2.55;;;;;;;;;;5022895;28;20504;-63
2023/05/31 11:45:27;;;;;;;7.60;2.70;;;;;;;;;;5024006;28;20481;-62
2023/05/31 11:47:56;;;;;;;9.25;2.90;;;;;;;;;;5025376;28;20831;-63
2023/05/31 11:50:25;;;;;;;7.28;2.50;;;;;;;;;;5024280;28;20469;-63
2023/05/31 11:52:54;;;;;;;5.57;2.47;;;;;;;;;;5026249;28;20461;-62
2023/05/31 11:55:21;;;;;;;8.10;3.13;;;;;;;;;;5023668;28;20515;-63
2023/05/31 11:57:51;;;;;;;9.27;3.27;;;;;;;;;;5022208;28;20904;-62
2023/05/31 12:00:21;;;;;;;5.88;3.10;;;;;;;;;;5023918;28;20469;-62
2023/05/31 12:02:53;;;;;;;6.97;2.75;;;;;;;;;;5024628;28;20432;-63
2023/05/31 12:05:22;;;;;;;7.75;2.78;;;;;;;;;;5024334;28;20426;-62
2023/05/31 12:07:49;;;;;;;6.78;2.67;;;;;;;;;;5024458;28;20430;-62
2023/05/31 12:10:17;;;;;;;8.02;3.00;;;;;;;;;;5022896;28;20488;-63
2023/05/31 12:12:44;;;;;;;6.85;2.60;;;;;;;;;;5022515;28;20840;-63
2023/05/31 12:15:12;;;;;;;8.70;3.17;;;;;;;;;;5022510;28;20956;-63
2023/05/31 12:17:39;;;;;;;6.63;2.70;;;;;;;;;;5021808;28;20428;-63
2023/05/31 12:20:08;;;;;;;6.38;2.80;;;;;;;;;;5024983;28;20416;-65
2023/05/31 12:22:35;;;;;;;6.57;2.80;;;;;;;;;;5023394;28;20465;-69
2023/05/31 12:25:03;;;;;;;6.55;2.78;;;;;;;;;;5026007;28;20826;-64
2023/05/31 12:27:30;;;;;;;7.10;2.92;;;;;;;;;;5027941;28;20473;-62
2023/05/31 12:29:57;;;;;;;6.53;2.60;;;;;;;;;;5024148;28;20456;-63
2023/05/31 12:32:27;;;;;;;8.20;3.35;;;;;;;;;;5026563;28;20419;-61
2023/05/31 12:34:54;;;;;;;5.88;2.92;;;;;;;;;;5024185;28;20428;-58
2023/05/31 12:37:23;;;;;;;7.10;2.83;;;;;;;;;;5026687;28;21029;-64
2023/05/31 12:39:50;;;;;;;7.50;3.03;;;;;;;;;;5023572;28;21101;-61
2023/05/31 12:42:17;;;;;;;7.57;3.00;;;;;;;;;;5031497;28;20422;-62
2023/05/31 12:44:44;;;;;;;8.23;3.08;;;;;;;;;;5022207;28;20433;-61
2023/05/31 12:47:12;;;;;;;6.53;2.80;;;;;;;;;;5031661;28;20469;-61
2023/05/31 12:49:41;;;;;;;4.55;3.00;;;;;;;;;;5030751;28;20473;-65
2023/05/31 12:52:09;;;;;;;8.80;2.90;;;;;;;;;;5023155;28;20415;-65
2023/05/31 12:54:38;;;;;;;6.50;3.20;;;;;;;;;;5021737;28;20417;-64
2023/05/31 12:57:06;;;;;;;7.97;2.95;;;;;;;;;;5021647;28;20475;-65
2023/05/31 12:59:34;;;;;;;6.68;2.70;;;;;;;;;;5024310;28;20477;-64
2023/05/31 13:02:01;;;;;;;5.55;2.63;;;;;;;;;;5022481;28;20473;-64
2023/05/31 13:04:29;;;;;;;4.70;2.40;;;;;;;;;;5020792;28;20441;-64
2023/05/31 13:06:57;;;;;;;6.73;2.60;;;;;;;;;;5024020;28;20421;-66
2023/05/31 13:09:24;;;;;;;5.45;2.60;;;;;;;;;;5020607;28;20442;-65
2023/05/31 13:11:52;;;;;;;6.28;2.88;;;;;;;;;;5023086;28;20476;-65
2023/05/31 13:14:20;;;;;;;6.90;2.75;;;;;;;;;;5022366;28;20746;-65
2023/05/31 13:16:47;;;;;;;6.65;2.63;;;;;;;;;;5020503;28;20808;-65
2023/05/31 13:19:15;;;;;;;4.80;2.70;;;;;;;;;;5031651;28;20426;-65
2023/05/31 13:21:42;;;;;;;6.95;3.13;;;;;;;;;;5020210;28;20469;-64
2023/05/31 13:24:10;;;;;;;8.57;2.80;;;;;;;;;;5021201;28;20976;-64
2023/05/31 13:26:37;;;;;;;7.05;2.88;;;;;;;;;;5026253;28;20454;-65
2023/05/31 13:29:05;;;;;;;6.90;2.58;;;;;;;;;;5020742;28;20421;-64
2023/05/31 13:31:32;;;;;;;5.30;2.60;;;;;;;;;;5024149;28;20422;-65
2023/05/31 13:34:00;;;;;;;7.63;3.17;;;;;;;;;;5020202;28;20471;-64
2023/05/31 13:36:27;;;;;;;5.85;2.72;;;;;;;;;;5021318;28;20518;-65
2023/05/31 13:38:54;;;;;;;7.93;2.83;;;;;;;;;;5023306;28;20425;-64
2023/05/31 13:41:21;;;;;;;7.80;2.72;;;;;;;;;;5021887;28;20423;-65
2023/05/31 13:43:48;;;;;;;8.23;2.40;;;;;;;;;;5022218;28;20425;-65
2023/05/31 13:46:17;;;;;;;7.30;2.70;;;;;;;;;;5014220;28;20415;-65
2023/05/31 13:48:44;;;;;;;8.30;2.72;;;;;;;;;;5027089;28;20910;-65
2023/05/31 13:51:12;;;;;;;5.85;2.60;;;;;;;;;;5023197;28;20822;-65
2023/05/31 13:53:39;;;;;;;6.40;2.60;;;;;;;;;;5020471;28;20422;-63
2023/05/31 13:56:08;;;;;;;7.70;2.38;;;;;;;;;;5023101;28;20421;-64
2023/05/31 13:58:35;;;;;;;4.88;2.35;;;;;;;;;;5027422;28;20455;-64
2023/05/31 14:01:03;;;;;;;5.30;2.47;;;;;;;;;;5023592;28;20428;-64
2023/05/31 14:03:31;;;;;;;5.65;2.60;;;;;;;;;;5020517;28;20413;-64
2023/05/31 14:05:58;;;;;;;6.88;2.70;;;;;;;;;;5027035;28;20896;-65
2023/05/31 14:08:25;;;;;;;7.72;2.70;;;;;;;;;;5021967;28;20415;-65
2023/05/31 14:10:53;;;;;;;7.57;2.97;;;;;;;;;;5018669;28;20520;-66
2023/05/31 14:13:19;;;;;;;6.45;2.90;;;;;;;;;;5029057;28;20415;-65
2023/05/31 14:15:47;;;;;;;6.72;2.65;;;;;;;;;;5021198;28;21230;-66
2023/05/31 14:18:14;;;;;;;4.60;2.30;;;;;;;;;;5026319;28;21025;-66
2023/05/31 14:20:42;;;;;;;4.20;2.65;;;;;;;;;;5020431;28;20759;-65
2023/05/31 14:23:09;;;;;;;6.90;2.72;;;;;;;;;;5024170;28;20416;-64
2023/05/31 14:25:36;;;;;;;7.43;2.40;;;;;;;;;;5025534;28;20434;-65
2023/05/31 14:28:03;;;;;;;4.68;2.40;;;;;;;;;;5022407;28;20914;-64
2023/05/31 14:30:30;;;;;;;7.85;2.75;;;;;;;;;;5026446;28;20536;-65
2023/05/31 14:32:57;;;;;;;7.00;2.38;;;;;;;;;;5024459;28;20429;-65